Time;durP1;ratioP1;P1;durP2;ratioP2;P2;SDS_P1;SDS_P2;PMS_P1;PMS_P2;Temp;Humidity;BMP_temperature;BMP_pressure;BME280_temperature;BME280_humidity;BME280_pressure;Samples;Min_cycle;Max_cycle;Signal;HPM_P1;HPM_P2
2022/01/26 00:07:46;;;;;;;;;;;;;;;18.83;49.95;101865.16;4969729;28;1467;-62
2022/01/26 00:10:13;;;;;;;;;;;;;;;18.70;50.00;101867.78;4971916;28;1524;-65
2022/01/26 00:12:40;;;;;;;;;;;;;;;18.72;50.12;101868.56;4967634;28;1470;-63
2022/01/26 00:15:07;;;;;;;;;;;;;;;18.64;49.99;101865.53;4969512;28;1981;-64
2022/01/26 00:17:34;;;;;;;;;;;;;;;18.64;50.04;101871.78;4974528;28;1418;-61
2022/01/26 00:20:09;;;;;;;;;;;;;;;18.55;50.09;101880.44;4969379;28;1433;-62
2022/01/26 00:22:53;;;;;;;;;;;;;;;18.48;49.99;101876.44;4968262;28;1373;-64
2022/01/26 00:25:32;;;;;;;;;;;;;;;18.47;49.84;101883.63;4967705;28;1506;-64
2022/01/26 00:28:19;;;;;;;;;;;;;;;18.38;50.29;101880.72;4967960;28;1517;-65
2022/01/26 00:38:59;;;;;;;;;;;;;;;18.18;50.44;101890.94;4963660;28;1262;-62
2022/01/26 00:41:34;;;;;;;;;;;;;;;18.16;50.29;101876.81;4971359;28;1699;-62
2022/01/26 00:44:02;;;;;;;;;;;;;;;18.16;50.10;101874.13;4969840;28;1561;-65
2022/01/26 00:46:29;;;;;;;;;;;;;;;18.12;50.31;101872.63;4977837;28;988;-62
2022/01/26 00:48:56;;;;;;;;;;;;;;;18.12;50.23;101891.34;4965684;28;1508;-65
2022/01/26 00:51:22;;;;;;;;;;;;;;;18.10;50.15;101869.19;4971197;28;1783;-65
2022/01/26 00:53:54;;;;;;;;;;;;;;;18.08;50.12;101873.78;4965171;28;1628;-64
2022/01/26 00:56:21;;;;;;;;;;;;;;;18.10;50.11;101866.50;4967607;28;1907;-61
2022/01/26 00:58:48;;;;;;;;;;;;;;;18.12;50.25;101883.31;4965919;28;1589;-65
2022/01/26 01:01:15;;;;;;;;;;;;;;;18.07;49.90;101872.09;4963340;28;1326;-62
2022/01/26 01:03:45;;;;;;;;;;;;;;;18.05;50.05;101855.28;4965578;28;1582;-62
2022/01/26 01:06:16;;;;;;;;;;;;;;;18.07;49.83;101853.34;4970285;28;1616;-65
2022/01/26 01:08:43;;;;;;;;;;;;;;;18.06;49.78;101865.88;4965032;28;1474;-65
2022/01/26 01:11:10;;;;;;;;;;;;;;;18.04;49.89;101861.56;4969838;28;1722;-65
2022/01/26 01:13:39;;;;;;;;;;;;;;;18.03;50.20;101867.91;4965591;28;1416;-62
2022/01/26 01:16:07;;;;;;;;;;;;;;;17.98;49.57;101864.66;4968734;28;1906;-65
2022/01/26 01:18:42;;;;;;;;;;;;;;;17.97;50.02;101853.09;4968481;28;1512;-62
2022/01/26 01:24:25;;;;;;;;;;;;;;;17.95;49.94;101844.31;4963581;28;1518;-65
2022/01/26 01:29:41;;;;;;;;;;;;;;;18.09;49.48;101836.22;4936352;28;1678;-64
2022/01/26 01:32:13;;;;;;;;;;;;;;;18.32;48.73;101827.59;4962019;28;1366;-64
2022/01/26 01:34:41;;;;;;;;;;;;;;;18.43;48.81;101833.91;4966494;28;1911;-62
2022/01/26 01:37:09;;;;;;;;;;;;;;;18.60;48.61;101839.91;4965439;28;1368;-64
2022/01/26 01:39:36;;;;;;;;;;;;;;;18.71;48.47;101840.03;4970552;28;1579;-62
2022/01/26 01:42:06;;;;;;;;;;;;;;;18.86;49.04;101836.31;4969294;28;1636;-62
2022/01/26 01:44:33;;;;;;;;;;;;;;;18.89;48.92;101835.25;4962809;28;1661;-62
2022/01/26 01:47:00;;;;;;;;;;;;;;;18.94;48.48;101826.84;4967893;28;1298;-64
2022/01/26 01:49:27;;;;;;;;;;;;;;;18.86;49.10;101832.75;4961067;28;1053;-64
2022/01/26 01:51:58;;;;;;;;;;;;;;;18.78;48.94;101829.75;4966985;28;1562;-64
2022/01/26 01:54:25;;;;;;;;;;;;;;;18.73;49.02;101822.03;4965526;28;1716;-62
2022/01/26 01:56:55;;;;;;;;;;;;;;;18.64;49.17;101823.53;4970080;28;1902;-62
2022/01/26 01:59:22;;;;;;;;;;;;;;;18.63;48.89;101818.28;4966316;28;1708;-64
2022/01/26 02:01:48;;;;;;;;;;;;;;;18.52;48.84;101808.31;4973207;28;1528;-65
2022/01/26 02:04:15;;;;;;;;;;;;;;;18.53;48.62;101811.88;4968357;28;944;-62
2022/01/26 02:06:43;;;;;;;;;;;;;;;18.45;48.83;101805.22;4963352;28;1393;-65
2022/01/26 02:09:11;;;;;;;;;;;;;;;18.39;48.76;101818.19;4965232;28;1503;-65
2022/01/26 02:11:44;;;;;;;;;;;;;;;18.37;48.79;101798.69;4974264;28;1525;-62
2022/01/26 02:14:17;;;;;;;;;;;;;;;18.32;48.72;101801.66;4967343;28;1282;-65
2022/01/26 02:16:49;;;;;;;;;;;;;;;18.29;48.69;101789.34;4967019;28;1969;-61
2022/01/26 02:50:06;;;;;;;;;;;;;;;18.11;48.95;101800.47;4966047;28;1290;-62
2022/01/26 02:52:56;;;;;;;;;;;;;;;18.05;48.94;101813.31;4971296;28;1433;-65
2022/01/26 02:55:36;;;;;;;;;;;;;;;17.99;48.81;101804.84;4972117;28;1981;-62
2022/01/26 02:58:35;;;;;;;;;;;;;;;18.07;48.96;101794.47;4970917;28;1588;-64
2022/01/26 03:03:57;;;;;;;;;;;;;;;17.98;49.07;101781.69;4954713;28;1650;-62
2022/01/26 03:06:31;;;;;;;;;;;;;;;18.01;48.69;101792.22;4965236;28;1472;-61
2022/01/26 03:09:04;;;;;;;;;;;;;;;17.98;49.34;101800.44;4973711;28;1436;-62
2022/01/26 03:11:35;;;;;;;;;;;;;;;17.97;49.42;101796.06;4970402;28;1505;-62
2022/01/26 03:14:09;;;;;;;;;;;;;;;17.87;49.71;101794.00;4974409;28;1506;-64
2022/01/26 03:16:41;;;;;;;;;;;;;;;17.87;50.00;101794.00;4971752;28;1911;-65
2022/01/26 03:19:18;;;;;;;;;;;;;;;17.80;50.34;101787.28;4967100;28;1420;-62
2022/01/26 03:21:54;;;;;;;;;;;;;;;17.80;50.48;101786.44;4966528;28;1723;-64
2022/01/26 03:30:18;;;;;;;;;;;;;;;17.79;50.81;101798.97;4971022;28;1799;-65
2022/01/26 03:33:07;;;;;;;;;;;;;;;17.76;50.72;101785.78;4961996;28;1731;-65
2022/01/26 03:35:44;;;;;;;;;;;;;;;17.73;51.29;101793.19;4962195;28;1973;-65
2022/01/26 03:38:18;;;;;;;;;;;;;;;17.76;51.05;101796.47;4968062;28;1704;-62
2022/01/26 03:40:45;;;;;;;;;;;;;;;17.77;50.85;101800.88;4969693;28;1520;-65
2022/01/26 03:43:13;;;;;;;;;;;;;;;18.00;50.36;101810.06;4966435;28;1619;-64
2022/01/26 03:45:40;;;;;;;;;;;;;;;18.24;50.50;101788.81;4976077;28;1025;-62
2022/01/26 03:48:07;;;;;;;;;;;;;;;18.48;50.45;101799.66;4972324;28;1652;-64
2022/01/26 03:50:33;;;;;;;;;;;;;;;18.65;49.79;101798.44;4972691;28;1449;-61
2022/01/26 03:53:00;;;;;;;;;;;;;;;18.73;50.23;101786.34;4969166;28;1309;-65
2022/01/26 03:55:26;;;;;;;;;;;;;;;18.80;49.82;101790.31;4971341;28;1981;-62
2022/01/26 03:57:53;;;;;;;;;;;;;;;18.83;49.57;101779.41;4973090;28;1377;-62
2022/01/26 04:00:21;;;;;;;;;;;;;;;18.82;49.56;101788.38;4967426;28;1555;-61
2022/01/26 04:02:48;;;;;;;;;;;;;;;18.79;49.83;101791.28;4961276;28;1644;-64
2022/01/26 04:05:14;;;;;;;;;;;;;;;18.74;49.72;101785.38;4969949;28;1585;-65
2022/01/26 04:07:43;;;;;;;;;;;;;;;18.64;50.20;101769.97;4968362;28;1428;-62
2022/01/26 04:10:18;;;;;;;;;;;;;;;18.58;50.40;101781.13;4974974;28;1236;-65
2022/01/26 04:12:45;;;;;;;;;;;;;;;18.54;50.50;101779.59;4963496;28;1496;-62
2022/01/26 04:15:21;;;;;;;;;;;;;;;18.47;50.54;101784.53;4969596;28;1059;-61
2022/01/26 04:17:49;;;;;;;;;;;;;;;18.37;50.63;101766.53;4971053;28;1499;-62
2022/01/26 04:20:16;;;;;;;;;;;;;;;18.37;50.86;101777.25;4962431;28;1362;-65
2022/01/26 04:22:52;;;;;;;;;;;;;;;18.36;50.91;101778.22;4972498;28;1467;-62
2022/01/26 04:25:22;;;;;;;;;;;;;;;18.37;50.69;101771.91;4968016;28;1592;-61
2022/01/26 04:27:52;;;;;;;;;;;;;;;18.34;50.92;101758.72;4958511;28;1401;-61
2022/01/26 04:30:19;;;;;;;;;;;;;;;18.35;50.93;101771.16;4969907;28;1433;-61
2022/01/26 04:32:46;;;;;;;;;;;;;;;18.32;51.17;101766.84;4960401;28;1704;-65
2022/01/26 04:35:14;;;;;;;;;;;;;;;18.31;51.17;101775.00;4964863;28;1636;-64
2022/01/26 04:38:00;;;;;;;;;;;;;;;18.27;51.39;101772.53;4972282;28;1978;-62
2022/01/26 04:40:34;;;;;;;;;;;;;;;18.24;51.28;101772.75;4966270;28;1243;-65
2022/01/26 04:43:05;;;;;;;;;;;;;;;18.24;51.62;101770.09;4966981;28;1277;-62
2022/01/26 04:45:31;;;;;;;;;;;;;;;18.24;51.58;101783.47;4966769;28;963;-62
2022/01/26 04:47:58;;;;;;;;;;;;;;;18.18;51.58;101757.09;4963928;28;1532;-65
2022/01/26 04:50:26;;;;;;;;;;;;;;;18.15;51.87;101767.19;4965565;28;1619;-62
2022/01/26 04:52:52;;;;;;;;;;;;;;;18.13;51.70;101775.31;4968982;28;1397;-65
2022/01/26 04:55:19;;;;;;;;;;;;;;;18.14;51.77;101773.47;4965736;28;1416;-63
2022/01/26 04:57:46;;;;;;;;;;;;;;;18.05;51.99;101764.28;4966775;28;1965;-62
2022/01/26 05:00:13;;;;;;;;;;;;;;;18.06;51.89;101774.88;4974527;28;1338;-62
2022/01/26 05:02:39;;;;;;;;;;;;;;;17.99;51.55;101775.41;4963311;28;1569;-65
2022/01/26 05:05:06;;;;;;;;;;;;;;;17.94;51.93;101769.50;4965850;28;1271;-62
2022/01/26 05:07:34;;;;;;;;;;;;;;;17.88;51.49;101766.25;4965411;28;1647;-61
2022/01/26 05:10:02;;;;;;;;;;;;;;;17.84;50.71;101778.13;4966337;28;1466;-62
2022/01/26 05:12:29;;;;;;;;;;;;;;;17.80;50.51;101787.28;4967980;28;1270;-62
2022/01/26 05:14:55;;;;;;;;;;;;;;;17.83;50.24;101781.78;4969090;28;1271;-64
2022/01/26 05:17:23;;;;;;;;;;;;;;;17.82;50.86;101787.19;4960778;28;1899;-62
2022/01/26 05:19:55;;;;;;;;;;;;;;;17.78;50.57;101783.00;4966132;28;1390;-62
2022/01/26 05:22:22;;;;;;;;;;;;;;;17.77;51.19;101768.78;4968309;28;1243;-64
2022/01/26 05:24:51;;;;;;;;;;;;;;;17.76;51.04;101777.75;4966841;28;1465;-63
2022/01/26 05:27:17;;;;;;;;;;;;;;;17.86;50.05;101778.03;4963176;28;1855;-61
2022/01/26 05:29:44;;;;;;;;;;;;;;;18.33;51.14;101775.75;4972203;28;1586;-59
2022/01/26 05:32:10;;;;;;;;;;;;;;;18.86;49.79;101758.59;4972555;28;1369;-59
2022/01/26 05:34:37;;;;;;;;;;;;;;;19.08;50.15;101775.81;4971012;28;1339;-60
2022/01/26 05:37:04;;;;;;;;;;;;;;;19.16;49.73;101760.03;4968634;28;1907;-58
2022/01/26 05:39:32;;;;;;;;;;;;;;;19.24;49.16;101744.22;4972972;28;1806;-58
2022/01/26 05:42:03;;;;;;;;;;;;;;;19.33;49.27;101765.97;4970806;28;1353;-56
2022/01/26 05:44:30;;;;;;;;;;;;;;;19.40;49.19;101762.72;4972517;28;1341;-58
2022/01/26 05:46:56;;;;;;;;;;;;;;;19.56;50.53;101765.13;4973932;28;1393;-56
2022/01/26 05:49:24;;;;;;;;;;;;;;;19.84;50.38;101760.38;4969046;28;1353;-59
2022/01/26 05:51:51;;;;;;;;;;;;;;;19.69;52.27;101762.34;4970769;28;1613;-60
2022/01/26 05:54:18;;;;;;;;;;;;;;;19.59;52.36;101758.66;4964110;28;1570;-59
2022/01/26 05:56:47;;;;;;;;;;;;;;;19.68;52.43;101753.44;4969792;28;1902;-62
2022/01/26 05:59:16;;;;;;;;;;;;;;;20.16;51.80;101749.00;4965862;28;1385;-58
2022/01/26 06:01:43;;;;;;;;;;;;;;;20.00;50.89;101754.69;4965356;28;1710;-57
2022/01/26 06:04:09;;;;;;;;;;;;;;;19.78;52.68;101748.28;4968053;28;1828;-57
2022/01/26 06:06:36;;;;;;;;;;;;;;;19.77;52.07;101733.13;4963715;28;1655;-57
2022/01/26 06:09:02;;;;;;;;;;;;;;;19.70;52.91;101741.75;4969361;28;1434;-58
2022/01/26 06:11:29;;;;;;;;;;;;;;;19.64;52.77;101748.44;4971266;28;1261;-58
2022/01/26 06:13:56;;;;;;;;;;;;;;;19.56;53.38;101743.66;4970445;28;1350;-55
2022/01/26 06:16:24;;;;;;;;;;;;;;;19.54;52.95;101736.69;4970016;28;1903;-57
2022/01/26 06:18:50;;;;;;;;;;;;;;;19.56;52.01;101748.16;4968575;28;1715;-58
2022/01/26 06:21:17;;;;;;;;;;;;;;;19.52;52.49;101742.16;4962413;28;1470;-58
2022/01/26 06:23:44;;;;;;;;;;;;;;;19.28;53.10;101745.72;4963650;28;1521;-58
2022/01/26 06:26:10;;;;;;;;;;;;;;;19.15;53.25;101744.88;4966249;28;1415;-58
2022/01/26 06:28:37;;;;;;;;;;;;;;;19.05;53.74;101750.06;4970618;28;1430;-58
2022/01/26 06:31:09;;;;;;;;;;;;;;;19.03;53.34;101752.00;4963541;28;1223;-58
2022/01/26 06:33:39;;;;;;;;;;;;;;;18.96;53.81;101748.06;4961271;28;1570;-58
2022/01/26 06:36:06;;;;;;;;;;;;;;;18.91;53.62;101734.13;4965486;28;2003;-58
2022/01/26 06:38:33;;;;;;;;;;;;;;;18.87;54.08;101719.25;4965823;28;1596;-58
2022/01/26 06:41:01;;;;;;;;;;;;;;;18.87;53.68;101743.38;4964971;28;1628;-58
2022/01/26 06:43:30;;;;;;;;;;;;;;;18.84;53.32;101724.81;4965780;28;1675;-58
2022/01/26 06:46:01;;;;;;;;;;;;;;;18.94;54.04;101725.00;4956426;28;1291;-59
2022/01/26 06:51:10;;;;;;;;;;;;;;;18.82;53.79;101718.72;4963905;28;1744;-58
2022/01/26 06:53:37;;;;;;;;;;;;;;;18.99;53.13;101721.03;4965732;28;1675;-58
2022/01/26 06:56:04;;;;;;;;;;;;;;;18.91;54.36;101723.41;4970874;28;1828;-56
2022/01/26 06:58:30;;;;;;;;;;;;;;;18.92;53.36;101725.16;4971496;28;1987;-61
2022/01/26 07:00:57;;;;;;;;;;;;;;;18.95;54.90;101726.72;4970517;28;1199;-60
2022/01/26 07:03:24;;;;;;;;;;;;;;;18.94;53.92;101728.56;4972839;28;1564;-66
2022/01/26 07:05:50;;;;;;;;;;;;;;;18.80;54.14;101736.72;4972286;28;1421;-58
2022/01/26 07:08:18;;;;;;;;;;;;;;;18.63;52.94;101736.09;4973455;28;1964;-67
2022/01/26 07:10:47;;;;;;;;;;;;;;;18.64;52.07;101735.13;4969260;28;1457;-62
2022/01/26 07:13:13;;;;;;;;;;;;;;;18.61;51.63;101738.03;4970932;28;1667;-61
2022/01/26 07:24:00;;;;;;;;;;;;;;;18.67;51.74;101737.56;4955994;28;1719;-61
2022/01/26 07:26:28;;;;;;;;;;;;;;;18.69;51.73;101745.50;4973721;28;1735;-70
2022/01/26 07:28:55;;;;;;;;;;;;;;;18.73;51.45;101738.97;4971110;28;1573;-67
2022/01/26 07:31:22;;;;;;;;;;;;;;;18.75;51.28;101745.06;4976737;28;1509;-66
2022/01/26 07:33:53;;;;;;;;;;;;;;;18.67;51.56;101748.28;4966968;28;1536;-64
2022/01/26 07:36:20;;;;;;;;;;;;;;;18.72;51.33;101723.00;4973017;28;1898;-61
2022/01/26 07:38:49;;;;;;;;;;;;;;;18.87;50.35;101736.19;4974235;28;1489;-64
2022/01/26 07:41:17;;;;;;;;;;;;;;;18.78;51.00;101717.19;4970040;28;1462;-59
2022/01/26 07:43:44;;;;;;;;;;;;;;;18.64;51.22;101715.50;4969089;28;1585;-64
2022/01/26 07:46:10;;;;;;;;;;;;;;;18.59;51.63;101729.25;4973782;28;1441;-57
2022/01/26 07:48:37;;;;;;;;;;;;;;;18.57;51.49;101735.69;4970300;28;1434;-58
2022/01/26 07:51:04;;;;;;;;;;;;;;;18.52;51.93;101749.38;4972386;28;1434;-57
2022/01/26 07:53:32;;;;;;;;;;;;;;;18.49;51.87;101746.94;4975166;28;1588;-57
2022/01/26 07:55:58;;;;;;;;;;;;;;;18.42;52.12;101738.47;4971118;28;1370;-64
2022/01/26 07:58:26;;;;;;;;;;;;;;;18.42;52.06;101743.84;4971795;28;1903;-61
2022/01/26 08:00:53;;;;;;;;;;;;;;;18.49;51.98;101728.19;4977564;28;1469;-64
2022/01/26 08:03:19;;;;;;;;;;;;;;;18.63;51.81;101730.72;4971527;28;1581;-56
2022/01/26 08:05:46;;;;;;;;;;;;;;;18.77;51.82;101732.41;4973709;28;1565;-63
2022/01/26 08:08:12;;;;;;;;;;;;;;;18.91;51.79;101725.25;4969608;28;1348;-59
2022/01/26 08:10:40;;;;;;;;;;;;;;;19.07;51.49;101715.97;4970173;28;1345;-58
2022/01/26 08:13:07;;;;;;;;;;;;;;;19.31;51.23;101709.75;4971587;28;1549;-64
2022/01/26 08:15:35;;;;;;;;;;;;;;;19.28;51.26;101704.63;4968074;28;1359;-60
2022/01/26 08:18:05;;;;;;;;;;;;;;;19.24;51.44;101720.09;4973165;28;1918;-64
2022/01/26 08:20:32;;;;;;;;;;;;;;;19.16;50.94;101726.97;4967569;28;1523;-63
2022/01/26 08:22:58;;;;;;;;;;;;;;;19.42;51.26;101711.66;4966943;28;1267;-63
2022/01/26 08:25:26;;;;;;;;;;;;;;;19.42;51.11;101712.50;4971830;28;1228;-63
2022/01/26 08:27:58;;;;;;;;;;;;;;;19.32;51.60;101716.84;4966683;28;1410;-60
2022/01/26 08:30:25;;;;;;;;;;;;;;;19.32;50.44;101730.25;4973041;28;1411;-65
2022/01/26 08:32:53;;;;;;;;;;;;;;;19.27;51.12;101729.72;4968516;28;1525;-63
2022/01/26 08:35:19;;;;;;;;;;;;;;;18.71;50.44;101622.16;4959439;28;1361;-59
2022/01/26 08:37:46;;;;;;;;;;;;;;;19.30;51.47;101720.59;4968617;28;1915;-63
2022/01/26 08:40:12;;;;;;;;;;;;;;;19.28;50.72;101721.56;4963884;28;1463;-63
2022/01/26 08:42:41;;;;;;;;;;;;;;;19.34;51.20;101727.44;4967891;28;1538;-59
2022/01/26 08:45:08;;;;;;;;;;;;;;;19.30;50.55;101723.25;4966202;28;1031;-59
2022/01/26 08:47:34;;;;;;;;;;;;;;;19.26;50.58;101728.03;4959274;28;1821;-63
2022/01/26 08:50:03;;;;;;;;;;;;;;;19.28;51.41;101726.09;4963922;28;1592;-60
2022/01/26 08:52:29;;;;;;;;;;;;;;;19.26;51.30;101731.56;4967585;28;1543;-60
2022/01/26 08:54:56;;;;;;;;;;;;;;;19.32;50.59;101726.69;4969824;28;1518;-63
2022/01/26 08:57:22;;;;;;;;;;;;;;;19.24;50.85;101740.69;4970295;28;1985;-64
2022/01/26 08:59:49;;;;;;;;;;;;;;;19.19;51.02;101734.81;4963452;28;1604;-60
2022/01/26 09:02:15;;;;;;;;;;;;;;;19.15;50.99;101739.53;4971860;28;1860;-63
2022/01/26 09:04:42;;;;;;;;;;;;;;;19.12;51.60;101726.38;4971936;28;1524;-59
2022/01/26 09:07:14;;;;;;;;;;;;;;;19.15;51.58;101746.72;4965378;28;1066;-59
2022/01/26 09:09:45;;;;;;;;;;;;;;;19.12;51.46;101746.94;4959849;28;1708;-63
2022/01/26 09:12:13;;;;;;;;;;;;;;;19.05;51.51;101735.81;4961052;28;1672;-63
2022/01/26 09:14:39;;;;;;;;;;;;;;;19.00;51.74;101732.59;4967161;28;1363;-60
2022/01/26 09:17:07;;;;;;;;;;;;;;;18.98;51.07;101732.75;4956646;28;1966;-64
2022/01/26 09:19:34;;;;;;;;;;;;;;;18.93;51.45;101732.19;4969738;28;1527;-60
2022/01/26 09:22:03;;;;;;;;;;;;;;;18.93;51.22;101740.25;4969625;28;1703;-60
2022/01/26 09:24:31;;;;;;;;;;;;;;;18.93;51.81;101731.34;4969125;28;1778;-60
2022/01/26 09:26:58;;;;;;;;;;;;;;;18.86;51.75;101747.88;4959353;28;1520;-59
2022/01/26 09:29:25;;;;;;;;;;;;;;;18.90;51.65;101736.91;4966501;28;1375;-59
2022/01/26 09:31:51;;;;;;;;;;;;;;;18.26;52.20;101661.06;4972158;28;1530;-63
2022/01/26 09:34:18;;;;;;;;;;;;;;;18.85;51.71;101729.22;4964253;28;1470;-64
2022/01/26 09:36:45;;;;;;;;;;;;;;;18.82;51.99;101730.31;4960674;28;1492;-60
2022/01/26 09:39:12;;;;;;;;;;;;;;;18.87;51.85;101716.56;4967735;28;1902;-60
2022/01/26 09:41:40;;;;;;;;;;;;;;;18.85;51.35;101719.34;4965759;28;1514;-63
2022/01/26 09:44:07;;;;;;;;;;;;;;;18.87;51.61;101716.56;4964866;28;1377;-65
2022/01/26 09:46:34;;;;;;;;;;;;;;;18.98;51.38;101718.44;4973807;28;1604;-61
2022/01/26 09:49:01;;;;;;;;;;;;;;;18.97;51.61;101725.66;4971937;28;1526;-58
2022/01/26 09:51:28;;;;;;;;;;;;;;;19.01;51.69;101716.41;4970456;28;1510;-59
2022/01/26 09:54:02;;;;;;;;;;;;;;;19.14;50.86;101710.13;4974711;28;1519;-58
2022/01/26 09:56:29;;;;;;;;;;;;;;;19.13;51.39;101711.13;4968708;28;1319;-63
2022/01/26 09:58:57;;;;;;;;;;;;;;;19.12;51.51;101718.31;4969779;28;1933;-56
2022/01/26 10:01:24;;;;;;;;;;;;;;;19.12;52.74;101709.41;4975324;28;1601;-58
2022/01/26 10:03:52;;;;;;;;;;;;;;;19.03;52.94;101709.13;4971988;28;1543;-59
2022/01/26 10:06:21;;;;;;;;;;;;;;;18.97;54.00;101714.06;4973531;28;1604;-59
2022/01/26 10:09:25;;;;;;;;;;;;;;;19.02;53.42;101720.81;4968512;28;1593;-58
2022/01/26 10:17:27;;;;;;;;;;;;;;;19.07;54.49;101689.16;4967966;28;1961;-58
2022/01/26 10:19:58;;;;;;;;;;;;;;;19.04;54.56;101692.06;4974309;28;1667;-59
2022/01/26 10:22:28;;;;;;;;;;;;;;;18.98;54.89;101702.38;4968412;28;1513;-62
2022/01/26 10:25:09;;;;;;;;;;;;;;;18.96;55.15;101694.47;4968391;28;1389;-64
2022/01/26 10:27:37;;;;;;;;;;;;;;;18.95;54.56;101667.78;4971988;28;1465;-62
2022/01/26 10:30:06;;;;;;;;;;;;;;;18.94;54.47;101680.31;4963698;28;1715;-63
2022/01/26 10:32:33;;;;;;;;;;;;;;;18.95;55.08;101682.00;4971771;28;1434;-61
2022/01/26 10:35:01;;;;;;;;;;;;;;;18.98;54.89;101681.81;4973986;28;1324;-60
2022/01/26 10:37:27;;;;;;;;;;;;;;;18.95;54.41;101676.66;4970174;28;1910;-60
2022/01/26 10:39:57;;;;;;;;;;;;;;;19.08;53.87;101666.75;4973242;28;1271;-57
2022/01/26 10:42:25;;;;;;;;;;;;;;;19.20;53.94;101680.19;4974677;28;1434;-60
2022/01/26 10:45:03;;;;;;;;;;;;;;;19.14;53.32;101670.81;4968906;28;1379;-65
2022/01/26 10:47:35;;;;;;;;;;;;;;;18.95;54.99;101671.28;4969434;28;1137;-57
2022/01/26 10:50:30;;;;;;;;;;;;;;;18.85;54.77;101659.53;4976242;28;1277;-63
2022/01/26 10:53:05;;;;;;;;;;;;;;;18.86;54.69;101647.84;4972673;28;1441;-57
2022/01/26 10:55:32;;;;;;;;;;;;;;;18.88;54.73;101651.28;4975736;28;1410;-57
2022/01/26 10:57:58;;;;;;;;;;;;;;;18.85;54.50;101654.19;4975505;28;1926;-57
2022/01/26 11:00:25;;;;;;;;;;;;;;;18.82;54.57;101651.72;4972972;28;1192;-59
2022/01/26 11:02:57;;;;;;;;;;;;;;;18.84;54.77;101652.47;4971801;28;1417;-60
2022/01/26 11:05:24;;;;;;;;;;;;;;;18.99;53.71;101651.34;4967111;28;1488;-60
2022/01/26 11:07:52;;;;;;;;;;;;;;;19.10;53.99;101641.63;4974726;28;1853;-57
2022/01/26 11:10:19;;;;;;;;;;;;;;;19.04;54.35;101640.28;4961060;28;1612;-57
2022/01/26 11:12:45;;;;;;;;;;;;;;;19.18;54.18;101660.69;4973181;28;1326;-61
2022/01/26 11:15:13;;;;;;;;;;;;;;;19.07;53.57;101646.25;4974688;28;1003;-57
2022/01/26 11:17:42;;;;;;;;;;;;;;;19.04;54.70;101645.66;4974189;28;1907;-58
2022/01/26 11:20:18;;;;;;;;;;;;;;;19.04;53.70;101635.78;4976697;28;1461;-63
2022/01/26 11:22:49;;;;;;;;;;;;;;;19.08;54.06;101639.94;4967240;28;1408;-61
2022/01/26 11:25:15;;;;;;;;;;;;;;;18.97;54.86;101631.84;4975636;28;1372;-54
2022/01/26 11:27:42;;;;;;;;;;;;;;;18.96;54.26;101626.56;4974681;28;1489;-57
2022/01/26 11:30:15;;;;;;;;;;;;;;;18.94;54.46;101632.06;4968404;28;1759;-57
2022/01/26 11:32:49;;;;;;;;;;;;;;;18.93;55.40;101624.16;4973924;28;1553;-67
2022/01/26 11:35:18;;;;;;;;;;;;;;;18.94;54.99;101626.72;4970693;28;1478;-67
2022/01/26 11:37:48;;;;;;;;;;;;;;;18.99;54.49;101615.63;4972820;28;1910;-69
2022/01/26 11:46:05;;;;;;;;;;;;;;;18.90;55.23;101613.63;4975251;28;1184;-57
2022/01/26 11:48:32;;;;;;;;;;;;;;;18.84;55.24;101609.59;4974440;28;1539;-65
2022/01/26 11:51:01;;;;;;;;;;;;;;;18.91;55.30;101610.84;4971247;28;1177;-68
2022/01/26 11:53:29;;;;;;;;;;;;;;;18.90;55.70;101605.59;4971149;28;1462;-63
2022/01/26 11:56:02;;;;;;;;;;;;;;;18.90;54.74;101603.78;4972418;28;1405;-56
2022/01/26 11:58:29;;;;;;;;;;;;;;;18.91;54.50;101589.41;4967657;28;1907;-59
2022/01/26 12:01:11;;;;;;;;;;;;;;;19.01;54.96;101600.28;4977921;28;2032;-59
2022/01/26 12:03:44;;;;;;;;;;;;;;;18.92;54.55;101601.84;4972874;28;1795;-65
2022/01/26 12:06:18;;;;;;;;;;;;;;;18.88;54.28;101605.75;4965771;28;1286;-59
2022/01/26 12:08:45;;;;;;;;;;;;;;;18.81;54.93;101609.81;4970716;28;1410;-65
2022/01/26 12:11:12;;;;;;;;;;;;;;;18.84;55.20;101601.53;4973749;28;1517;-66
2022/01/26 12:13:40;;;;;;;;;;;;;;;18.81;54.84;101593.75;4971854;28;1322;-66
2022/01/26 12:16:10;;;;;;;;;;;;;;;18.77;55.05;101597.59;4977411;28;1621;-54
2022/01/26 12:18:42;;;;;;;;;;;;;;;18.79;55.09;101595.66;4974456;28;1976;-59
2022/01/26 12:32:24;;;;;;;;;;;;;;;18.77;51.68;101581.53;4974660;28;1338;-66
2022/01/26 12:35:00;;;;;;;;;;;;;;;18.69;51.96;101599.00;4962274;28;1408;-61
2022/01/26 12:37:40;;;;;;;;;;;;;;;18.69;50.97;101585.63;4974366;28;1570;-69
2022/01/26 12:45:39;;;;;;;;;;;;;;;18.78;52.23;101593.94;4971466;28;1388;-67
2022/01/26 12:48:08;;;;;;;;;;;;;;;18.77;52.41;101586.88;4974800;28;1644;-66
2022/01/26 12:50:35;;;;;;;;;;;;;;;18.81;52.64;101591.06;4976239;28;1427;-61
2022/01/26 12:53:01;;;;;;;;;;;;;;;18.83;52.62;101578.41;4975320;28;1442;-68
2022/01/26 12:55:30;;;;;;;;;;;;;;;18.77;52.99;101587.72;4974413;28;1249;-70
2022/01/26 12:57:57;;;;;;;;;;;;;;;18.74;52.78;101590.66;4973109;28;1989;-70
2022/01/26 13:00:25;;;;;;;;;;;;;;;18.72;52.51;101572.94;4976989;28;1387;-62
2022/01/26 13:02:52;;;;;;;;;;;;;;;18.73;52.48;101578.22;4972009;28;1507;-70
2022/01/26 13:05:23;;;;;;;;;;;;;;;18.72;52.62;101587.22;4975055;28;1494;-64
2022/01/26 13:07:59;;;;;;;;;;;;;;;18.74;52.86;101592.44;4974571;28;1550;-62
2022/01/26 13:10:25;;;;;;;;;;;;;;;18.75;53.05;101581.63;4968739;28;1319;-63
2022/01/26 13:12:53;;;;;;;;;;;;;;;18.72;52.83;101584.56;4967222;28;1521;-70
2022/01/26 13:15:26;;;;;;;;;;;;;;;18.71;52.70;101588.19;4975362;28;1290;-66
2022/01/26 13:17:58;;;;;;;;;;;;;;;18.73;52.71;101580.03;4968021;28;1722;-67
2022/01/26 13:20:41;;;;;;;;;;;;;;;18.68;53.52;101573.19;4968111;28;1466;-67
2022/01/26 13:23:22;;;;;;;;;;;;;;;18.67;53.26;101586.69;4969686;28;1318;-66
2022/01/26 13:26:03;;;;;;;;;;;;;;;18.63;53.49;101588.75;4965450;28;1360;-61
2022/01/26 13:28:45;;;;;;;;;;;;;;;18.61;53.68;101590.69;4974055;28;1485;-67
2022/01/26 13:31:43;;;;;;;;;;;;;;;18.56;53.63;101583.94;4976025;28;1301;-61
2022/01/26 13:37:15;;;;;;;;;;;;;;;18.58;53.61;101598.97;4939999;28;1216;-67
2022/01/26 13:50:42;;;;;;;;;;;;;;;18.77;53.99;101593.09;4945653;28;1350;-61
2022/01/26 13:53:12;;;;;;;;;;;;;;;18.75;53.92;101596.84;4974662;28;1437;-62
2022/01/26 13:55:59;;;;;;;;;;;;;;;18.75;53.98;101578.94;4972629;28;1386;-67
2022/01/26 13:58:56;;;;;;;;;;;;;;;18.93;53.09;101582.09;4974806;28;1902;-56
2022/01/26 14:01:23;;;;;;;;;;;;;;;19.20;52.89;101580.97;4971413;28;1401;-61
2022/01/26 14:03:53;;;;;;;;;;;;;;;19.32;52.72;101582.75;4970727;28;1695;-61
2022/01/26 14:06:20;;;;;;;;;;;;;;;19.39;52.95;101586.66;4963226;28;1342;-60
2022/01/26 14:08:47;;;;;;;;;;;;;;;19.69;52.79;101590.59;4968444;28;1588;-58
2022/01/26 14:11:13;;;;;;;;;;;;;;;19.73;52.85;101592.09;4969726;28;1577;-64
2022/01/26 14:13:40;;;;;;;;;;;;;;;19.70;51.55;101589.66;4965434;28;1589;-66
2022/01/26 14:16:09;;;;;;;;;;;;;;;19.83;52.02;101587.72;4968298;28;1191;-65
2022/01/26 14:21:43;;;;;;;;;;;;;;;19.67;52.67;101588.03;4934204;28;1507;-60
2022/01/26 14:26:48;;;;;;;;;;;;;;;19.76;52.20;101578.47;4971053;28;1174;-64
2022/01/26 14:29:22;;;;;;;;;;;;;;;19.79;52.51;101591.63;4966517;28;1315;-65
2022/01/26 14:32:07;;;;;;;;;;;;;;;19.76;52.18;101591.88;4973285;28;1710;-63
2022/01/26 15:30:21;;;;;;;;;;;;;;;19.98;51.90;101580.28;4973663;28;1403;-59
2022/01/26 15:35:52;;;;;;;;;;;;;;;20.09;51.62;101600.91;4973608;28;1670;-67
2022/01/26 15:41:18;;;;;;;;;;;;;;;20.20;51.65;101600.91;4967391;28;1418;-61
2022/01/26 15:44:05;;;;;;;;;;;;;;;20.20;52.56;101611.66;4968076;28;1608;-67
2022/01/26 15:49:44;;;;;;;;;;;;;;;20.24;52.64;101599.69;4951215;28;1352;-62
2022/01/26 15:52:32;;;;;;;;;;;;;;;20.12;52.58;101602.53;4970094;28;1276;-68
2022/01/26 16:06:10;;;;;;;;;;;;;;;20.10;52.32;101616.06;4975853;28;1238;-62
2022/01/26 16:19:59;;;;;;;;;;;;;;;20.04;52.95;101622.75;4962354;28;1906;-61
2022/01/26 16:37:18;;;;;;;;;;;;;;;20.18;51.81;101627.03;4967795;28;1416;-58
2022/01/26 18:04:52;;;;;;;;;;;;;;;19.27;55.64;101660.84;4968919;28;1410;-62
2022/01/26 18:13:03;;;;;;;;;;;;;;;19.16;55.83;101676.03;4970159;28;1409;-67